createdAt,value
2019-04-21T00:00:24.196Z,16.97
2019-04-21T00:03:07.305Z,16.37
2019-04-21T00:05:57.186Z,14.73
2019-04-21T00:08:37.924Z,15.18
2019-04-21T00:13:42.640Z,14.80
2019-04-21T00:16:10.650Z,14.78
2019-04-21T00:19:12.970Z,14.98
2019-04-21T00:21:51.142Z,15.30
2019-04-21T00:24:36.374Z,14.50
2019-04-21T00:27:15.638Z,15.25
2019-04-21T00:29:52.107Z,15.25
2019-04-21T00:32:25.394Z,15.25
2019-04-21T00:34:56.590Z,15.68
2019-04-21T00:37:46.986Z,15.38
2019-04-21T00:40:27.477Z,15.43
2019-04-21T00:43:00.894Z,14.80
2019-04-21T00:45:36.444Z,15.20
2019-04-21T00:48:20.269Z,15.50
2019-04-21T00:51:10.942Z,14.98
2019-04-21T00:53:51.189Z,14.93
2019-04-21T00:56:22.878Z,15.45
2019-04-21T00:59:02.390Z,15.45
2019-04-21T01:01:32.938Z,16.30
2019-04-21T01:04:13.916Z,16.20
2019-04-21T01:06:49.600Z,15.32
2019-04-21T01:09:25.947Z,15.55
2019-04-21T01:12:05.126Z,15.68
2019-04-21T01:14:50.080Z,16.07
2019-04-21T01:17:18.683Z,15.70
2019-04-21T01:19:50.676Z,15.68
2019-04-21T01:22:10.437Z,14.73
2019-04-21T01:24:48.835Z,15.25
2019-04-21T01:27:46.788Z,15.08
2019-04-21T01:30:23.705Z,15.85
2019-04-21T01:33:00.034Z,14.85
2019-04-21T01:35:36.203Z,16.55
2019-04-21T01:38:14.236Z,14.78
2019-04-21T01:40:52.732Z,15.18
2019-04-21T01:43:28.707Z,14.75
2019-04-21T01:46:06.694Z,15.38
2019-04-21T01:48:39.076Z,15.38
2019-04-21T01:51:15.638Z,16.25
2019-04-21T01:54:12.526Z,14.30
2019-04-21T01:57:09.987Z,15.78
2019-04-21T01:59:40.225Z,15.25
2019-04-21T02:02:23.020Z,16.15
2019-04-21T02:05:10.553Z,15.03
2019-04-21T02:07:39.260Z,15.03
2019-04-21T02:10:20.355Z,15.13
2019-04-21T02:12:51.086Z,15.23
2019-04-21T02:15:36.004Z,15.40
2019-04-21T02:18:07.591Z,14.60
2019-04-21T02:20:34.488Z,15.10
2019-04-21T02:23:34.544Z,15.15
2019-04-21T02:25:57.589Z,15.58
2019-04-21T02:28:44.034Z,14.68
2019-04-21T02:31:40.477Z,15.68
2019-04-21T02:34:00.367Z,15.08
2019-04-21T02:42:04.577Z,15.72
2019-04-21T02:44:32.621Z,15.48
2019-04-21T02:46:58.411Z,14.75
2019-04-21T02:52:31.730Z,14.70
2019-04-21T02:54:53.982Z,15.38
2019-04-21T02:57:39.614Z,15.05
2019-04-21T03:00:19.147Z,15.23
2019-04-21T03:05:50.961Z,16.35
2019-04-21T03:08:40.469Z,15.50
2019-04-21T03:11:09.050Z,15.63
2019-04-21T03:13:43.895Z,15.90
2019-04-21T03:16:28.428Z,15.75
2019-04-21T03:21:33.963Z,16.50
2019-04-21T03:24:13.787Z,15.65
2019-04-21T03:27:01.589Z,15.72
2019-04-21T03:29:37.027Z,16.00
2019-04-21T03:37:16.621Z,16.05
2019-04-21T03:39:56.824Z,17.80
2019-04-21T03:45:03.683Z,16.25
2019-04-21T03:47:43.528Z,15.75
2019-04-21T03:50:23.909Z,16.73
2019-04-21T03:58:44.922Z,15.80
2019-04-21T04:12:18.832Z,16.65
2019-04-21T04:15:00.724Z,18.20
2019-04-21T04:20:22.169Z,17.00
2019-04-21T04:22:56.153Z,18.02
2019-04-21T04:25:28.005Z,17.32
2019-04-21T04:28:16.265Z,17.25
2019-04-21T04:30:52.756Z,17.85
2019-04-21T04:36:29.024Z,17.65
2019-04-21T04:38:51.999Z,18.57
2019-04-21T04:41:49.227Z,18.60
2019-04-21T04:44:30.314Z,18.15
2019-04-21T04:52:19.569Z,18.52
2019-04-21T05:00:14.501Z,20.17
2019-04-21T05:07:58.042Z,18.73
2019-04-21T05:13:02.311Z,19.20
2019-04-21T05:15:32.214Z,19.32
2019-04-21T05:18:13.386Z,19.80
2019-04-21T05:20:53.383Z,19.35
2019-04-21T05:23:29.229Z,20.12
2019-04-21T05:25:54.390Z,19.37
2019-04-21T05:28:32.959Z,20.77
2019-04-21T05:31:38.254Z,19.45
2019-04-21T05:34:18.597Z,20.37
2019-04-21T05:37:01.028Z,20.10
2019-04-21T05:40:00.517Z,20.65
2019-04-21T05:42:44.440Z,20.05
2019-04-21T05:45:26.824Z,21.62
2019-04-21T05:48:28.278Z,20.70
2019-04-21T05:50:58.873Z,20.48
2019-04-21T05:53:40.905Z,21.68
2019-04-21T05:56:25.671Z,20.35
2019-04-21T05:58:58.813Z,21.23
2019-04-21T06:04:17.465Z,22.37
2019-04-21T06:07:00.589Z,21.17
2019-04-21T06:09:27.413Z,22.48
2019-04-21T06:12:05.906Z,21.00
2019-04-21T06:14:46.446Z,21.05
2019-04-21T06:17:25.257Z,22.90
2019-04-21T06:19:57.277Z,22.27
2019-04-21T06:22:32.858Z,22.80
2019-04-21T06:25:31.601Z,21.48
2019-04-21T06:27:44.340Z,21.82
2019-04-21T06:30:27.716Z,24.02
2019-04-21T06:32:52.701Z,22.75
2019-04-21T06:39:06.350Z,24.72
2019-04-21T06:44:22.728Z,24.37
2019-04-21T06:46:47.127Z,23.73
2019-04-21T06:49:19.125Z,24.45
2019-04-21T06:52:11.428Z,23.50
2019-04-21T06:54:41.055Z,24.25
2019-04-21T06:57:18.218Z,24.32
2019-04-21T06:59:49.675Z,23.83
2019-04-21T07:05:09.003Z,23.20
2019-04-21T07:08:06.295Z,24.12
2019-04-21T07:10:30.733Z,23.12
2019-04-21T07:12:59.251Z,24.10
2019-04-21T07:15:43.545Z,23.27
2019-04-21T07:18:19.499Z,23.92
2019-04-21T07:20:54.947Z,23.27
2019-04-21T07:23:31.166Z,23.15
2019-04-21T07:26:11.148Z,23.70
2019-04-21T07:28:56.277Z,23.07
2019-04-21T07:31:24.994Z,23.35
2019-04-21T07:34:21.647Z,23.12
2019-04-21T07:36:46.354Z,22.48
2019-04-21T07:39:12.038Z,23.25
2019-04-21T07:41:51.086Z,22.27
2019-04-21T07:44:28.526Z,23.02
2019-04-21T07:47:23.529Z,22.32
2019-04-21T07:50:09.071Z,22.58
2019-04-21T07:52:55.281Z,22.87
2019-04-21T07:58:19.116Z,22.48
2019-04-21T08:03:20.454Z,21.40
2019-04-21T08:05:58.441Z,21.68
2019-04-21T08:08:31.450Z,22.05
2019-04-21T08:11:09.085Z,21.42
2019-04-21T08:13:55.089Z,21.02
2019-04-21T08:16:24.424Z,21.55
2019-04-21T08:18:59.483Z,22.13
2019-04-21T08:21:43.371Z,21.60
2019-04-21T08:24:14.973Z,20.80
2019-04-21T08:26:53.116Z,22.20
2019-04-21T08:29:38.033Z,21.62
2019-04-21T08:32:07.954Z,21.05
2019-04-21T08:34:54.871Z,20.20
2019-04-21T08:37:26.126Z,23.22
2019-04-21T08:42:52.377Z,22.87
2019-04-21T08:45:33.613Z,23.42
2019-04-21T08:48:04.151Z,21.97
2019-04-21T08:50:47.587Z,22.37
2019-04-21T08:53:24.737Z,22.25
2019-04-21T08:56:27.795Z,22.75
2019-04-21T09:02:06.259Z,22.22
2019-04-21T09:04:47.998Z,22.37
2019-04-21T09:07:29.181Z,22.05
2019-04-21T09:10:05.195Z,22.80
2019-04-21T09:12:42.790Z,22.82
2019-04-21T09:15:14.459Z,22.55
2019-04-21T09:17:44.652Z,21.60
2019-04-21T09:20:33.406Z,21.15
2019-04-21T09:23:06.883Z,23.02
2019-04-21T09:25:46.748Z,22.58
2019-04-21T09:28:24.139Z,22.25
2019-04-21T09:30:49.961Z,21.95
2019-04-21T09:33:18.501Z,23.50
2019-04-21T09:35:59.068Z,23.12
2019-04-21T09:38:37.119Z,22.50
2019-04-21T09:41:15.519Z,22.40
2019-04-21T09:43:48.978Z,21.82
2019-04-21T09:46:23.122Z,21.10
2019-04-21T09:49:02.661Z,22.07
2019-04-21T09:51:36.882Z,21.07
2019-04-21T09:54:20.717Z,22.35
2019-04-21T09:56:55.991Z,21.75
2019-04-21T09:59:32.127Z,21.55
2019-04-21T10:02:11.871Z,21.48
2019-04-21T10:04:40.642Z,21.70
2019-04-21T10:07:41.946Z,19.60
2019-04-21T10:10:15.435Z,21.07
2019-04-21T10:12:51.891Z,20.70
2019-04-21T10:15:28.310Z,20.40
2019-04-21T10:18:08.692Z,20.15
2019-04-21T10:20:44.856Z,20.10
2019-04-21T10:23:21.240Z,19.52
2019-04-21T10:25:56.845Z,20.40
2019-04-21T10:28:32.910Z,19.48
2019-04-21T10:31:09.039Z,19.77
2019-04-21T10:33:46.273Z,19.45
2019-04-21T10:36:22.717Z,18.70
2019-04-21T10:39:00.397Z,16.97
2019-04-21T10:41:35.309Z,18.45
2019-04-21T10:44:11.449Z,17.30
2019-04-21T10:46:48.970Z,18.10
2019-04-21T10:49:24.534Z,17.52
2019-04-21T10:52:01.346Z,17.27
2019-04-21T10:55:05.623Z,17.90
2019-04-21T10:57:22.265Z,18.02
2019-04-21T10:59:59.429Z,17.92
2019-04-21T11:02:41.332Z,16.67
2019-04-21T11:05:16.816Z,16.65
2019-04-21T11:08:07.655Z,15.63
2019-04-21T11:10:31.968Z,16.57
2019-04-21T11:13:08.409Z,16.52
2019-04-21T11:15:43.719Z,14.98
2019-04-21T11:18:26.025Z,14.90
2019-04-21T11:21:02.846Z,14.68
2019-04-21T11:23:38.453Z,12.75
2019-04-21T11:26:14.004Z,12.82
2019-04-21T11:28:58.998Z,13.48
2019-04-21T11:31:45.225Z,12.58
2019-04-21T11:34:27.445Z,11.93
2019-04-21T11:37:18.062Z,11.28
2019-04-21T11:40:05.486Z,12.10
2019-04-21T11:42:39.696Z,11.18
2019-04-21T11:45:28.338Z,11.38
2019-04-21T11:48:24.110Z,11.22
2019-04-21T11:51:04.854Z,12.28
2019-04-21T11:53:41.103Z,12.05
2019-04-21T11:56:18.917Z,11.65
2019-04-21T11:58:54.244Z,10.58
2019-04-21T12:01:29.810Z,11.18
2019-04-21T12:04:05.538Z,10.72
2019-04-21T12:06:44.447Z,10.45
2019-04-21T12:09:18.929Z,10.88
2019-04-21T12:11:54.410Z,10.85
2019-04-21T12:14:30.273Z,10.82
2019-04-21T12:17:05.851Z,12.18
2019-04-21T12:19:41.366Z,11.73
2019-04-21T12:22:22.118Z,10.38
2019-04-21T12:24:53.816Z,11.18
2019-04-21T12:27:29.927Z,11.53
2019-04-21T12:30:06.120Z,10.82
2019-04-21T12:32:56.076Z,10.30
2019-04-21T12:35:31.476Z,10.68
2019-04-21T12:38:07.026Z,10.80
2019-04-21T12:40:42.442Z,11.30
2019-04-21T12:43:18.793Z,11.63
2019-04-21T12:45:55.866Z,10.88
2019-04-21T12:48:35.724Z,10.20
2019-04-21T12:51:13.891Z,10.50
2019-04-21T12:53:49.882Z,10.75
2019-04-21T12:56:31.646Z,10.60
2019-04-21T12:59:13.104Z,9.88
2019-04-21T13:01:48.652Z,9.90
2019-04-21T13:04:23.930Z,11.05
2019-04-21T13:06:59.482Z,11.48
2019-04-21T13:09:36.117Z,9.98
2019-04-21T13:12:13.009Z,10.10
2019-04-21T13:14:49.543Z,10.40
2019-04-21T13:17:25.576Z,11.43
2019-04-21T13:20:01.227Z,10.05
2019-04-21T13:22:37.521Z,10.08
2019-04-21T13:25:14.041Z,10.50
2019-04-21T13:27:49.938Z,9.88
2019-04-21T13:30:26.899Z,9.68
2019-04-21T13:33:03.033Z,10.43
2019-04-21T13:35:39.146Z,9.93
2019-04-21T13:38:24.370Z,10.20
2019-04-21T13:41:27.213Z,10.88
2019-04-21T13:44:15.673Z,10.00
2019-04-21T13:46:52.463Z,11.25
2019-04-21T13:49:29.466Z,11.10
2019-04-21T13:52:06.660Z,10.65
2019-04-21T13:54:43.261Z,11.18
2019-04-21T13:57:18.841Z,10.88
2019-04-21T13:59:55.168Z,10.63
2019-04-21T14:02:31.445Z,11.30
2019-04-21T14:05:12.306Z,11.15
2019-04-21T14:07:48.162Z,11.80
2019-04-21T14:10:23.961Z,9.88
2019-04-21T14:13:00.456Z,10.23
2019-04-21T14:15:36.103Z,11.43
2019-04-21T14:18:11.392Z,10.82
2019-04-21T14:20:46.951Z,12.03
2019-04-21T14:23:31.736Z,11.90
2019-04-21T14:25:59.707Z,11.45
2019-04-21T14:28:36.649Z,12.35
2019-04-21T14:31:12.485Z,11.70
2019-04-21T14:33:47.980Z,13.18
2019-04-21T14:36:23.340Z,12.18
2019-04-21T14:38:58.774Z,12.20
2019-04-21T14:41:33.964Z,12.28
2019-04-21T14:44:09.330Z,12.60
2019-04-21T14:46:53.301Z,11.25
2019-04-21T14:49:51.045Z,12.20
2019-04-21T14:52:30.754Z,12.15
2019-04-21T14:55:22.797Z,12.80
2019-04-21T14:58:03.313Z,12.95
2019-04-21T15:00:59.825Z,13.00
2019-04-21T15:03:35.345Z,12.25
2019-04-21T15:06:11.608Z,11.88
2019-04-21T15:08:51.082Z,12.43
2019-04-21T15:11:26.558Z,12.45
2019-04-21T15:14:02.067Z,12.40
2019-04-21T15:16:38.601Z,11.18
2019-04-21T15:19:14.790Z,11.80
2019-04-21T15:21:50.358Z,11.65
2019-04-21T15:24:26.635Z,12.47
2019-04-21T15:27:03.085Z,12.25
2019-04-21T15:29:38.557Z,12.10
2019-04-21T15:32:14.890Z,13.60
2019-04-21T15:34:50.312Z,11.78
2019-04-21T15:37:26.045Z,12.25
2019-04-21T15:40:12.248Z,10.98
2019-04-21T15:42:38.924Z,11.70
2019-04-21T15:45:18.696Z,11.43
2019-04-21T15:47:58.130Z,12.00
2019-04-21T15:50:35.581Z,12.58
2019-04-21T15:53:21.655Z,11.20
2019-04-21T15:56:02.564Z,12.40
2019-04-21T15:59:00.970Z,12.10
2019-04-21T16:01:48.464Z,12.25
2019-04-21T16:04:25.118Z,11.95
2019-04-21T16:07:01.554Z,12.58
2019-04-21T16:09:37.571Z,12.20
2019-04-21T16:12:13.946Z,11.18
2019-04-21T16:14:50.361Z,11.90
2019-04-21T16:17:25.669Z,12.68
2019-04-21T16:20:02.038Z,11.85
2019-04-21T16:22:38.893Z,10.43
2019-04-21T16:25:15.006Z,11.43
2019-04-21T16:27:51.036Z,12.53
2019-04-21T16:30:26.425Z,11.65
2019-04-21T16:33:01.993Z,11.05
2019-04-21T16:35:39.851Z,11.40
2019-04-21T16:38:15.449Z,11.57
2019-04-21T16:40:57.372Z,11.85
2019-04-21T16:43:28.885Z,12.25
2019-04-21T16:46:08.763Z,11.35
2019-04-21T16:48:44.187Z,11.45
2019-04-21T16:51:20.179Z,11.48
2019-04-21T16:53:59.894Z,12.68
2019-04-21T16:56:43.919Z,12.30
2019-04-21T16:59:26.851Z,11.73
2019-04-21T17:02:04.736Z,10.70
2019-04-21T17:04:40.356Z,10.10
2019-04-21T17:07:15.761Z,10.65
2019-04-21T17:09:52.622Z,10.40
2019-04-21T17:12:28.750Z,10.90
2019-04-21T17:15:21.482Z,10.38
2019-04-21T17:18:06.430Z,11.28
2019-04-21T17:20:35.731Z,9.85
2019-04-21T17:23:01.680Z,9.90
2019-04-21T17:25:37.096Z,10.08
2019-04-21T17:28:12.517Z,9.90
2019-04-21T17:30:48.519Z,10.15
2019-04-21T17:33:28.272Z,9.83
2019-04-21T17:36:02.926Z,10.10
2019-04-21T17:38:39.416Z,9.80
2019-04-21T17:41:25.944Z,9.75
2019-04-21T17:43:52.564Z,9.20
2019-04-21T17:46:38.547Z,8.93
2019-04-21T17:49:07.080Z,9.10
2019-04-21T17:52:11.440Z,9.18
2019-04-21T17:54:53.891Z,8.85
2019-04-21T17:57:43.868Z,9.58
2019-04-21T18:00:36.326Z,9.73
2019-04-21T18:03:01.855Z,8.70
2019-04-21T18:05:37.484Z,9.33
2019-04-21T18:08:18.535Z,8.10
2019-04-21T18:10:46.384Z,9.45
2019-04-21T18:13:14.335Z,8.93
2019-04-21T18:16:02.891Z,9.05
2019-04-21T18:18:24.479Z,9.40
2019-04-21T18:21:06.946Z,8.50
2019-04-21T18:24:00.704Z,10.13
2019-04-21T18:26:39.441Z,10.55
2019-04-21T18:29:05.610Z,9.05
2019-04-21T18:31:48.080Z,8.63
2019-04-21T18:35:01.522Z,9.53
2019-04-21T18:38:01.241Z,9.63
2019-04-21T18:40:34.779Z,8.65
2019-04-21T18:43:44.781Z,9.28
2019-04-21T18:46:26.608Z,8.08
2019-04-21T18:48:53.424Z,9.35
2019-04-21T18:51:46.096Z,8.93
2019-04-21T18:54:47.133Z,9.43
2019-04-21T18:57:22.557Z,8.93
2019-04-21T18:59:49.444Z,9.10
2019-04-21T19:02:31.813Z,8.78
2019-04-21T19:05:15.444Z,9.43
2019-04-21T19:08:02.987Z,9.43
2019-04-21T19:10:42.247Z,9.30
2019-04-21T19:16:17.043Z,9.28
2019-04-21T19:18:42.872Z,9.15
2019-04-21T19:21:06.110Z,9.25
2019-04-21T19:24:10.733Z,9.08
2019-04-21T19:26:31.513Z,9.13
2019-04-21T19:29:01.234Z,8.60
2019-04-21T19:31:39.912Z,9.10
2019-04-21T19:34:05.838Z,9.13
2019-04-21T19:36:34.574Z,9.08
2019-04-21T19:39:16.388Z,8.93
2019-04-21T19:42:00.773Z,9.28
2019-04-21T19:44:45.202Z,9.28
2019-04-21T19:47:20.838Z,8.98
2019-04-21T19:50:01.473Z,10.10
2019-04-21T19:52:30.952Z,10.40
2019-04-21T19:54:54.473Z,10.23
2019-04-21T19:57:31.193Z,9.90
2019-04-21T20:00:08.207Z,10.65
2019-04-21T20:02:44.863Z,10.65
2019-04-21T20:05:28.209Z,10.30
2019-04-21T20:08:11.388Z,9.95
2019-04-21T20:10:55.034Z,10.38
2019-04-21T20:13:40.898Z,10.38
2019-04-21T20:16:06.808Z,10.68
2019-04-21T20:18:34.842Z,10.48
2019-04-21T20:21:04.006Z,9.90
2019-04-21T20:23:42.560Z,10.10
2019-04-21T20:26:21.038Z,10.53
2019-04-21T20:29:03.125Z,11.50
2019-04-21T20:31:49.007Z,10.13
2019-04-21T20:34:33.906Z,10.53
2019-04-21T20:37:07.679Z,10.58
2019-04-21T20:39:26.965Z,11.33
2019-04-21T20:42:19.845Z,11.30
2019-04-21T20:45:13.033Z,11.90
2019-04-21T20:47:23.191Z,11.38
2019-04-21T20:50:03.061Z,11.68
2019-04-21T20:52:50.912Z,12.37
2019-04-21T20:55:16.587Z,11.68
2019-04-21T20:57:55.224Z,11.90
2019-04-21T21:00:45.907Z,12.30
2019-04-21T21:03:23.204Z,11.60
2019-04-21T21:05:48.914Z,12.58
2019-04-21T21:08:31.434Z,12.82
2019-04-21T21:11:00.876Z,12.23
2019-04-21T21:13:44.468Z,12.85
2019-04-21T21:16:29.393Z,12.98
2019-04-21T21:21:38.341Z,13.35
2019-04-21T21:24:08.659Z,13.28
2019-04-21T21:26:52.354Z,12.95
2019-04-21T21:29:26.415Z,13.18
2019-04-21T21:32:09.732Z,12.68
2019-04-21T21:34:47.853Z,13.70
2019-04-21T21:37:26.825Z,13.50
2019-04-21T21:40:08.245Z,13.72
2019-04-21T21:42:26.438Z,13.35
2019-04-21T21:45:07.515Z,13.75
2019-04-21T21:47:54.938Z,14.25
2019-04-21T21:50:20.830Z,13.83
2019-04-21T21:52:59.942Z,14.23
2019-04-21T21:55:25.629Z,13.93
2019-04-21T21:58:03.502Z,14.25
2019-04-21T22:00:42.957Z,14.65
2019-04-21T22:03:24.494Z,14.87
2019-04-21T22:06:02.132Z,14.90
2019-04-21T22:08:34.383Z,14.60
2019-04-21T22:11:10.929Z,14.58
2019-04-21T22:13:53.283Z,15.25
2019-04-21T22:16:28.849Z,14.47
2019-04-21T22:19:18.436Z,15.58
2019-04-21T22:21:55.076Z,14.25
2019-04-21T22:24:36.259Z,14.23
2019-04-21T22:26:52.649Z,15.48
2019-04-21T22:29:39.178Z,15.10
2019-04-21T22:32:10.282Z,15.20
2019-04-21T22:34:48.737Z,16.07
2019-04-21T22:37:36.809Z,14.83
2019-04-21T22:40:08.379Z,15.75
2019-04-21T22:42:44.376Z,15.50
2019-04-21T22:45:11.374Z,14.87
2019-04-21T22:47:49.314Z,15.55
2019-04-21T22:50:30.685Z,16.65
2019-04-21T22:53:09.628Z,16.65
2019-04-21T22:55:43.174Z,16.25
2019-04-21T22:58:25.728Z,15.60
2019-04-21T23:00:58.583Z,15.63
2019-04-21T23:03:33.961Z,16.25
2019-04-21T23:06:16.299Z,15.48
2019-04-21T23:08:48.109Z,15.75
2019-04-21T23:11:23.646Z,14.93
2019-04-21T23:14:04.408Z,15.08
2019-04-21T23:16:40.259Z,15.75
2019-04-21T23:19:34.930Z,14.50
2019-04-21T23:22:18.329Z,15.55
2019-04-21T23:24:55.569Z,14.78
2019-04-21T23:27:23.993Z,14.43
2019-04-21T23:30:13.600Z,15.78
2019-04-21T23:32:38.574Z,14.73
2019-04-21T23:35:11.426Z,15.68
2019-04-21T23:37:44.620Z,14.70
2019-04-21T23:40:19.880Z,15.38
2019-04-21T23:42:55.272Z,14.87
2019-04-21T23:45:36.186Z,15.63
2019-04-21T23:48:18.482Z,15.88
2019-04-21T23:50:51.325Z,15.43
2019-04-21T23:53:25.698Z,16.80
2019-04-21T23:56:01.314Z,16.32
2019-04-21T23:58:38.437Z,17.30
